• Join FlightAware (Why Join?)
  • Login
  • US Flag 
Gobble Gobble! 
10:27PM EST


 

Airport Tracker/Info


-or-


 

Live Flight TrackerFlight Track Log ✈ ASQ4577 ✈ 20-May-2013 ✈ KDEN - KCLE

Flight Track Log - Related Links

Times and Time Zones

All times are in EDT time to prevent confusion due to time zone crossing. See the ASQ4577 flight status page for this flight to view local times or setup timezone preferences in your user account.

Time Position Orientation Groundspeed Altitude Reporting Facility
EDT Latitude Longitude Course Direction KTS MPH feet Rate Location/Type
03:29PM 39.9167 -104.6833 90° East 191 220 6,300  Level Denver TRACON
03:30PM 39.9167 -104.5833 90° East 254 292 8,300 1,980 Climbing Denver TRACON
03:31PM 39.9192 -104.5586 82° East 253 291 9,100 1,260 Climbing Denver Center
03:32PM 39.9136 -104.4556 94° East 286 329 10,000 1,920 Climbing Denver Center
03:33PM 39.9078 -104.3256 93° East 330 380 13,100 2,460 Climbing Denver Center
03:34PM 39.8997 -104.2161 95° East 309 356 15,600 2,160 Climbing Denver Center
03:35PM 39.8667 -103.8982 90° East  Level FlightAware Approximate
03:35PM 39.8942 -104.0800 93° East 310 357 18,000  Level Denver Center
03:36PM 39.9072 -103.9617 82° East 312 359 20,100 1,800 Climbing Denver Center
03:37PM 39.9281 -103.8508 76° East 318 366 21,700 1,380 Climbing Denver Center
03:38PM 39.9514 -103.7283 76° East 327 376 23,000 900 Climbing Denver Center
03:39PM 39.9750 -103.6078 76° East 358 412 23,600 1,080 Climbing Denver Center
03:40PM 40.0039 -103.4578 76° East 382 440 25,300 1,500 Climbing Denver Center
03:41PM 40.0267 -103.3292 77° East 381 438 26,700 1,380 Climbing Denver Center
03:42PM 40.0500 -103.2031 76° East 373 429 28,200 1,500 Climbing Denver Center
03:43PM 40.0758 -103.0592 77° East 365 420 29,800 1,380 Climbing Denver Center
03:44PM 40.0733 -102.9336 91° East 357 411 31,100 1,200 Climbing Denver Center
03:45PM 40.0669 -102.7861 93° East 364 419 32,400 1,140 Climbing Denver Center
03:46PM 40.0728 -102.6625 86° East 357 411 33,500 1,080 Climbing Denver Center
03:47PM 40.0917 -102.5236 80° East 351 404 34,700 720 Climbing Denver Center
03:48PM 40.1072 -102.4039 80° East 350 403 35,100 300 Climbing Denver Center
03:49PM 40.1289 -102.2586 79° East 364 419 35,400 360 Climbing Denver Center
03:50PM 40.1469 -102.1286 80° East 378 435 35,900 480 Climbing Denver Center
03:51PM 40.1689 -101.9994 77° East 381 438 36,400 480 Climbing Denver Center
03:52PM 40.1986 -101.8494 75° East 382 440 36,900 240 Climbing Denver Center
03:53PM 40.2219 -101.7181 77° East 387 445 37,000  Climbing Denver Center
03:54PM 40.2519 -101.5597 76° East 400 460 37,000  Level Denver Center
03:55PM 40.2775 -101.4186 77° East 414 476 37,000  Level Denver Center
03:57PM 40.3086 -101.2469 77° East 432 497 37,000  Level Denver Center
03:58PM 40.3361 -101.0969 76° East 442 509 37,000  Level Denver Center
03:59PM 40.3681 -100.9164 77° East 455 524 37,000  Level Denver Center
04:00PM 40.3958 -100.7594 77° East 463 533 37,000  Level Denver Center
04:01PM 40.4286 -100.5736 77° East 471 542 37,000  Level Denver Center
04:02PM 40.4569 -100.4128 77° East 475 547 37,000  Level Denver Center
04:03PM 40.4847 -100.2514 77° East 476 548 37,000  Level Denver Center
04:04PM 40.5172 -100.0631 77° East 476 548 37,000  Level Denver Center
04:05PM 40.5450 -99.9006 77° East 477 549 37,000  Level Denver Center
04:06PM 40.5756 -99.7144 78° East 480 552 37,000  Level Denver Center
04:07PM 40.6047 -99.5433 77° East 480 552 37,000  Level Denver Center
04:08PM 40.6328 -99.3728 78° East 479 551 37,000  Level Denver Center
04:09PM 40.6600 -99.2011 78° East 480 552 37,000  Level Denver Center
04:10PM 40.6942 -98.9964 78° East 480 552 37,000  Level Denver Center
04:11PM 40.7208 -98.8269 78° East 480 552 37,000  Level Minneapolis Center
04:12PM 40.7469 -98.6561 79° East 480 552 37,000  Level Minneapolis Center
04:13PM 40.7769 -98.4656 78° East 480 552 37,000  Level Minneapolis Center
04:14PM 40.8061 -98.2800 78° East 480 552 37,000  Level Minneapolis Center
04:15PM 40.8322 -98.1083 79° East 480 552 37,000  Level Minneapolis Center
04:16PM 40.8575 -97.9364 79° East 479 551 37,000  Level Minneapolis Center
04:17PM 40.8836 -97.7636 79° East 480 552 37,000  Level Minneapolis Center
04:18PM 40.9094 -97.5914 79° East 479 551 37,000  Level Minneapolis Center
04:19PM 40.9342 -97.4186 79° East 479 551 37,000  Level Minneapolis Center
04:20PM 40.9578 -97.2586 79° East 479 551 37,000  Level Minneapolis Center
04:21PM 40.9875 -97.0522 79° East 478 550 37,000  Level Minneapolis Center
04:22PM 41.0119 -96.8786 79° East 479 551 37,000  Level Minneapolis Center
04:23PM 41.0361 -96.7056 79° East 480 552 37,000  Level Minneapolis Center
04:24PM 41.0608 -96.5322 79° East 479 551 37,000  Level Minneapolis Center
04:25PM 41.0839 -96.3589 80° East 482 555 37,000  Level Minneapolis Center
04:26PM 41.1125 -96.1500 80° East 484 557 37,000  Level Minneapolis Center
04:27PM 41.1336 -95.9886 80° East 491 565 37,000  Level Minneapolis Center
04:28PM 41.1572 -95.8092 80° East 493 567 37,000  Level Minneapolis Center
04:29PM 41.1828 -95.6203 80° East 494 568 37,000  Level Minneapolis Center
04:31PM 41.2083 -95.4422 79° East 494 568 37,000  Level Minneapolis Center
04:32PM 41.2400 -95.2247 79° East 501 577 37,000  Level Minneapolis Center
04:33PM 41.2703 -95.0067 79° East 501 577 37,000  Level Minneapolis Center
04:34PM 41.2950 -94.8253 80° East 499 574 37,000  Level Minneapolis Center
04:35PM 41.3183 -94.6458 80° East 497 572 37,000  Level Minneapolis Center
04:36PM 41.3425 -94.4664 80° East 494 568 37,000  Level Minneapolis Center
04:37PM 41.3664 -94.2856 80° East 495 570 37,000  Level Minneapolis Center
04:38PM 41.3903 -94.1033 80° East 495 570 37,000  Level Minneapolis Center
04:39PM 41.4142 -93.9219 80° East 498 573 37,000  Level Minneapolis Center
04:40PM 41.4422 -93.7053 80° East 499 574 37,000  Level Minneapolis Center
04:41PM 41.4647 -93.5247 81° East 498 573 37,000  Level Minneapolis Center
04:42PM 41.4892 -93.3431 80° East 497 572 37,000  Level Minneapolis Center
04:43PM 41.5103 -93.1650 81° East 492 566 37,000  Level Minneapolis Center
04:44PM 41.5325 -92.9842 81° East 495 570 37,000  Level Minneapolis Center
04:45PM 41.5492 -92.8394 81° East 494 568 37,000  Level Minneapolis Center
04:46PM 41.5792 -92.5856 81° East 497 572 37,000  Level Minneapolis Center
04:47PM 41.6003 -92.4022 81° East 500 575 37,000  Level Minneapolis Center
04:48PM 41.6197 -92.2361 81° East 502 578 37,000  Level Chicago Center
04:49PM 41.6400 -92.0528 82° East 505 581 37,000  Level Chicago Center
04:50PM 41.6600 -91.8706 82° East 504 580 37,000  Level Chicago Center
04:51PM 41.6844 -91.6500 81° East 505 581 37,000  Level Chicago Center
04:52PM 41.7044 -91.4658 82° East 507 583 37,000  Level Chicago Center
04:53PM 41.7172 -91.2869 84° East 494 568 37,000  Level Chicago Center
04:54PM 41.7306 -91.1097 84° East 488 562 37,000  Level Chicago Center
04:55PM 41.7447 -90.9275 84° East 495 570 37,000  Level Chicago Center
04:56PM 41.7594 -90.7108 85° East 495 570 37,000  Level Chicago Center
04:57PM 41.7736 -90.5253 84° East 486 559 37,000  Level Chicago Center
04:58PM 41.7858 -90.3464 85° East 482 555 37,000  Level Chicago Center
05:00PM 41.7975 -90.1697 85° East 475 547 37,000  Level Chicago Center
05:01PM 41.8111 -89.9769 85° East 469 540 37,000  Level Chicago Center
05:02PM 41.8203 -89.8097 86° East 463 533 37,000  Level Chicago Center
05:03PM 41.8311 -89.6392 85° East 462 532 37,000  Level Chicago Center
05:04PM 41.8431 -89.4689 85° East 462 532 37,000  Level Chicago Center
05:05PM 41.8547 -89.2669 85° East 457 526 37,000  Level Chicago Center
05:06PM 41.8633 -89.0981 86° East 457 526 37,000  Level Chicago Center
05:07PM 41.8731 -88.9264 86° East 461 531 37,000  Level Chicago Center
05:08PM 41.8825 -88.7567 86° East 460 529 37,000  Level Chicago Center
05:09PM 41.8922 -88.5833 86° East 466 536 37,000  Level Chicago Center
05:10PM 41.9017 -88.4114 86° East 463 533 37,000  Level Chicago Center
05:11PM 41.9114 -88.2031 86° East 467 537 37,000  Level Chicago Center
05:12PM 41.9267 -88.0308 83° East 467 537 37,000  Level Chicago Center
05:13PM 41.9653 -87.8625 73° East 468 539 37,000  Level Chicago Center
05:14PM 42.0053 -87.6917 72° East 475 547 37,000  Level Chicago Center
05:15PM 42.0431 -87.5228 73° East 474 545 37,000  Level Chicago Center
05:16PM 42.0825 -87.3542 72° East 474 545 37,000  Level Chicago Center
05:17PM 42.1311 -87.1614 71° East 458 527 37,000  Level Chicago Center
05:18PM 42.1344 -86.9986 88° East 437 503 37,000  Level Chicago Center
05:19PM 42.1333 -86.8358 90° East 438 504 37,000 -300 Level Chicago Center
05:20PM 42.1314 -86.6800 91° East 438 504 36,400 -960 Descending Chicago Center
05:21PM 42.1297 -86.5206 91° East 429 494 35,100 -1,680 Descending Chicago Center
05:22PM 42.1269 -86.3200 91° East 443 510 33,000 -1,020 Descending Chicago Center
05:23PM 42.1250 -86.1497 91° East 453 521 33,000  Level Chicago Center
05:24PM 42.0997 -85.9819 101° East 460 529 33,000 -480 Level Chicago Center
05:25PM 42.0603 -85.8350 110° East 456 525 32,100 -2,400 Descending Chicago Center
05:26PM 42.0119 -85.6497 109° East 445 512 28,100 -2,520 Descending Chicago Center
05:27PM 41.9783 -85.5069 108° East 445 512 27,000 -540 Descending Chicago Center
05:28PM 41.9508 -85.3414 103° East 448 516 27,000  Level Chicago Center
05:29PM 41.9419 -85.1336 93° East 465 535 27,000  Level Chicago Center
05:31PM 41.9522 -84.9564 85° East 473 544 27,000  Level Chicago Center
05:32PM 41.9653 -84.7767 84° East 482 555 27,000  Level Chicago Center
05:33PM 41.9783 -84.5917 85° East 478 550 27,000  Level Chicago Center
05:34PM 41.9900 -84.4133 85° East 481 554 27,000  Level Chicago Center
05:34PM 41.9994 -84.3136 83° East 479 551 27,000  Level Cleveland Center
05:35PM 42.0056 -84.1156 88° East 474 545 27,000 -360 Level Cleveland Center
05:36PM 42.0172 -83.9344 85° East 474 545 26,300 -1,020 Descending Cleveland Center
05:37PM 42.0264 -83.7586 86° East 479 551 25,000 -1,200 Descending Cleveland Center
05:38PM 42.0375 -83.5831 85° East 472 543 24,000 -660 Descending Cleveland Center
05:39PM 42.0414 -83.4294 88° East 459 528 23,700 -1,020 Descending Cleveland Center
05:40PM 42.0247 -83.2583 97° East 459 528 22,000 -1,800 Descending Cleveland Center
05:41PM 42.0117 -83.0956 96° East 453 521 20,200 -1,020 Descending Cleveland Center
05:42PM 41.9964 -82.9300 97° East 447 514 20,000 -180 Descending Cleveland Center
05:43PM 41.9875 -82.8600 100° East 441 507 20,000 -420 Level Cleveland Center
05:43PM 41.9789 -82.7647 97° East 442 509 19,600 -1,320 Descending Cleveland Center
05:43PM 41.9756 -82.7086 95° East 438 504 18,800 -3,120 Descending Cleveland Center
05:44PM 41.9631 -82.6078 99° East 442 509 16,500 -3,300 Descending Cleveland Center
05:45PM 41.9514 -82.5514 106° East 417 480 15,300 -3,600 Descending Cleveland Center
05:45PM 41.9417 -82.5067 106° East 407 468 14,300 -2,940 Descending Cleveland Center
05:45PM 41.9300 -82.4617 109° East 419 482 13,300 -3,120 Descending Cleveland Center
05:46PM 41.9122 -82.3969 110° East 400 460 11,900 -2,760 Descending Cleveland Center
05:46PM 41.8942 -82.3572 121° Southeast 397 457 11,300 -1,680 Descending Cleveland Center
05:46PM 41.8883 -82.3292 106° East 401 461 10,900 -1,800 Descending Cleveland Center
05:47PM 41.8706 -82.2672 111° Southeast 375 432 10,100 -1,200 Descending Cleveland Center
05:47PM 41.8542 -82.2306 121° Southeast 350 403 10,000 -180 Descending Cleveland Center
05:47PM 41.8506 -82.2083 102° East 375 432 10,000 -180 Level Cleveland Center
05:48PM 41.8281 -82.1631 124° Southeast 309 356 9,900  Descending Cleveland Center
05:48PM 41.8033 -82.1431 149° Southeast 290 334 10,000 -360 Climbing Cleveland Center
05:49PM 41.7686 -82.1031 139° Southeast 284 327 9,600 -1,200 Descending Cleveland Center
05:49PM 41.7336 -82.0689 144° Southeast 298 343 8,800 -1,800 Descending Cleveland Center
05:50PM 41.7028 -82.0322 138° Southeast 290 334 7,800 -1,560 Descending Cleveland Center
05:50PM 41.6739 -82.0147 156° South 290 334 7,400 -1,080 Descending Cleveland Center
05:50PM 41.6553 -81.9894 135° Southeast 298 343 7,100 -660 Descending Cleveland Center
05:51PM 41.6367 -81.9750 150° Southeast 285 328 6,900 -120 Descending Cleveland Center
05:51PM 41.5997 -81.9353 141° Southeast 286 329 7,000  Climbing Cleveland Center
05:52PM 41.5769 -81.9156 147° Southeast 269 310 6,900  Descending Cleveland Center
05:52PM 41.5544 -81.8900 140° Southeast 201 231 7,000  Climbing Cleveland Center
05:53PM 41.5547 -81.8567 89° East 203 234 6,900 -240 Descending Cleveland Center
05:53PM 41.5614 -81.8153 78° East 219 252 6,800 -600 Descending Cleveland Center
05:54PM 41.5764 -81.7850 56° Northeast 208 239 6,300 -1,320 Descending Cleveland Center
05:54PM 41.5808 -81.7433 82° East 207 238 5,500 -840 Descending Cleveland Center
05:55PM 41.6086 -81.6772 61° Northeast 205 236 5,100 -600 Descending Cleveland Center
05:56PM 41.5672 -81.6406 146° Southeast 168 193 4,300 -900 Descending Cleveland Center
05:57PM 41.5317 -81.6706 212° Southwest 161 185 3,300 -660 Descending Cleveland Center
05:58PM 41.5000 -81.7142 226° Southwest 171 197 3,000 -480 Descending Cleveland Center
05:59PM 41.4681 -81.7636 229° Southwest 170 196 2,400 -660 Descending Cleveland Center
06:00PM 41.4428 -81.8047 231° Southwest 132 152 1,700 -720 Descending Cleveland Center
06:01PM 41.4172 -81.8403 226° Southwest 136 157 1,000 -720 Descending Cleveland Center